Airfield :
LOGIN :

Register | Disclaimer

   EN    FR    IT 

 










Legend :    VFR   Marginal VFR   IFR   Intensive IFR   Very Intensive IFR
Visi :
Ceiling :
>= 8 km
>= 3000ft
5 to 8 km
1000 to 3000 ft
1500m to 5 km
500 to 1000 ft
800 to 1500m
200 to 500 ft
< 800m
< 200 ft
Symbols :   Thunderstorms  Fog  Heavy snow  Heavy precipitations  Wind > 20 kt
SIGMETs :     Misc.  Thunderstorms  Icing  Turbulence  Mountain Waves  Volcanic Ashes






- Airport Elevation : 154 ft
- IATA code : PKV


ULOO - Pskov

CURRENT METAR :
  • 211800Z AUTO 21005MPS 9999 // NCD 13/10 Q1013 RMK QFE756

EXPIRED METARs :
  • 211700Z 20003MPS CAVOK 14/10 Q1014 R19/090070 NOSIG RMK QFE756
  • 211630Z 22003MPS CAVOK 14/11 Q1014 R19/090070 NOSIG RMK QFE756
  • 211600Z 22003MPS 9999 FEW038 14/11 Q1014 R19/090070 NOSIG RMK QFE756
  • 211530Z 23003MPS 9999 FEW035 15/11 Q1014 R19/090070 NOSIG RMK QFE756

TAF TAF ULOO
Valid from the 21 at 18:00 until the 22 at 03:00 UTC


211658Z 2118/2203 23004G09MPS 9999 BKN020
TEMPO 2121/2203 22007G12MPS BKN016



MET'MAP, your aeronautical weather chart ! - Copyright ORBIFLY December 2007 - Disclaimer

ORBIFLY MET'MAP TEAM :

Programming & Development : Alexandra Zaïnal
Concept & original design : Baudouin d'Aumeries
Assistance for programming : Marc-Olivier Méhu
Technical & hardware support : Manuel Goepfert

Contact : metmap@orbifly.com




SOURCES & CREDITS :

   NOAA